Time;durP1;ratioP1;P1;durP2;ratioP2;P2;SDS_P1;SDS_P2;PMS_P1;PMS_P2;Temp;Humidity;BMP_temperature;BMP_pressure;BME280_temperature;BME280_humidity;BME280_pressure;Samples;Min_cycle;Max_cycle;Signal;HPM_P1;HPM_P2
2022/01/17 00:01:50;;;;;;;84.07;47.78;;;;;;;4.76;100.00;103048.66;5031238;28;20025;-66
2022/01/17 00:04:15;;;;;;;87.35;48.40;;;;;;;4.75;100.00;103051.31;5033829;28;20464;-67
2022/01/17 00:06:43;;;;;;;91.47;47.65;;;;;;;4.76;100.00;103059.19;5017415;28;20034;-67
2022/01/17 00:09:09;;;;;;;83.57;47.55;;;;;;;4.75;100.00;103057.44;5029967;28;20533;-67
2022/01/17 00:11:37;;;;;;;76.55;44.38;;;;;;;4.78;100.00;103072.28;5028574;28;20033;-67
2022/01/17 00:14:05;;;;;;;77.63;45.83;;;;;;;4.77;100.00;103075.84;5026812;28;20030;-66
2022/01/17 00:16:40;;;;;;;75.13;45.35;;;;;;;4.77;100.00;103076.69;5029654;28;20112;-65
2022/01/17 00:19:38;;;;;;;75.55;45.60;;;;;;;4.78;100.00;103074.94;5015436;28;20034;-65
2022/01/17 00:22:03;;;;;;;77.85;43.58;;;;;;;4.78;100.00;103078.44;5016105;28;20065;-65
2022/01/17 00:24:28;;;;;;;78.65;43.38;;;;;;;4.78;100.00;103088.97;5034472;28;20029;-67
2022/01/17 00:26:54;;;;;;;66.80;42.95;;;;;;;4.79;100.00;103090.69;5036100;28;20038;-67
2022/01/17 00:29:19;;;;;;;66.93;39.80;;;;;;;4.79;100.00;103093.34;5033374;28;20033;-67
2022/01/17 00:31:45;;;;;;;69.88;41.53;;;;;;;4.76;100.00;103085.50;5037678;28;20029;-66
2022/01/17 00:34:10;;;;;;;73.85;39.60;;;;;;;4.79;100.00;103087.22;5029839;28;20436;-67
2022/01/17 00:36:35;;;;;;;62.40;37.53;;;;;;;4.81;100.00;103085.41;5014742;28;20490;-66
2022/01/17 00:39:00;;;;;;;65.72;38.97;;;;;;;4.80;100.00;103079.28;5015733;28;20025;-66
2022/01/17 00:41:26;;;;;;;68.05;37.47;;;;;;;4.81;100.00;103074.88;5014451;28;20816;-66
2022/01/17 00:43:52;;;;;;;69.43;36.70;;;;;;;4.80;100.00;103067.91;5017676;28;20018;-68
2022/01/17 00:46:17;;;;;;;66.88;37.65;;;;;;;4.81;100.00;103074.88;5016988;28;20059;-66
2022/01/17 00:48:42;;;;;;;66.22;37.70;;;;;;;4.81;100.00;103080.16;5016144;28;20438;-66
2022/01/17 00:51:07;;;;;;;65.55;37.28;;;;;;;4.80;100.00;103081.91;5021493;28;20056;-66
2022/01/17 00:53:36;;;;;;;63.78;35.20;;;;;;;4.81;100.00;103088.03;5017765;28;20033;-67
2022/01/17 00:56:04;;;;;;;58.80;36.92;;;;;;;4.80;100.00;103088.97;5030490;28;20033;-67
2022/01/17 00:58:29;;;;;;;61.72;37.08;;;;;;;4.79;100.00;103084.56;5033375;28;20092;-66
2022/01/17 01:00:54;;;;;;;58.97;36.38;;;;;;;4.78;100.00;103086.34;5031992;28;20040;-67
2022/01/17 01:03:21;;;;;;;58.88;35.30;;;;;;;4.79;100.00;103085.44;5022709;28;20032;-67
2022/01/17 01:05:46;;;;;;;57.95;35.33;;;;;;;4.79;100.00;103095.09;5034116;28;20438;-66
2022/01/17 01:08:12;;;;;;;55.75;34.80;;;;;;;4.78;100.00;103091.63;5031516;28;20095;-67
2022/01/17 01:10:37;;;;;;;56.15;34.63;;;;;;;4.79;100.00;103095.97;5022466;28;20079;-66
2022/01/17 01:13:03;;;;;;;57.35;35.35;;;;;;;4.79;100.00;103103.00;5033449;28;20017;-67
2022/01/17 01:15:45;;;;;;;58.33;33.58;;;;;;;4.79;100.00;103106.50;5032795;28;20527;-66
2022/01/17 01:18:38;;;;;;;59.05;33.00;;;;;;;4.77;100.00;103108.28;5024923;28;20446;-66
2022/01/17 01:21:43;;;;;;;52.15;32.45;;;;;;;4.79;100.00;103111.75;5031536;28;20044;-67
2022/01/17 01:29:29;;;;;;;50.10;31.45;;;;;;;4.80;100.00;103102.97;5033552;28;20160;-67
2022/01/17 01:32:07;;;;;;;52.90;32.10;;;;;;;4.80;100.00;103096.84;5032346;28;20104;-67
2022/01/17 01:34:38;;;;;;;56.22;32.17;;;;;;;4.81;100.00;103093.31;5033399;28;20025;-66
2022/01/17 01:37:04;;;;;;;51.97;30.33;;;;;;;4.80;100.00;103088.97;5034100;28;20025;-67
2022/01/17 01:39:30;;;;;;;50.08;31.63;;;;;;;4.79;100.00;103092.47;5030840;28;20026;-66
2022/01/17 01:41:55;;;;;;;52.33;31.55;;;;;;;4.79;100.00;103084.56;5036240;28;20074;-66
2022/01/17 01:44:23;;;;;;;51.72;29.23;;;;;;;4.76;100.00;103088.16;5037507;28;20454;-66
2022/01/17 01:46:50;;;;;;;48.83;29.15;;;;;;;4.74;100.00;103096.94;5027365;28;20025;-66
2022/01/17 01:49:18;;;;;;;44.90;26.17;;;;;;;4.71;100.00;103105.75;5038211;28;20033;-66
2022/01/17 01:51:44;;;;;;;38.28;25.17;;;;;;;4.68;100.00;103112.81;5039223;28;20234;-66
2022/01/17 01:54:10;;;;;;;42.90;24.30;;;;;;;4.67;100.00;103121.63;5039509;28;20361;-66
2022/01/17 01:56:39;;;;;;;44.40;24.42;;;;;;;4.65;100.00;103124.28;5037666;28;20465;-67
2022/01/17 01:59:06;;;;;;;38.95;23.25;;;;;;;4.61;100.00;103127.84;5040645;28;20025;-67
2022/01/17 02:01:32;;;;;;;43.85;23.48;;;;;;;4.56;100.00;103113.88;5050340;28;20021;-66
2022/01/17 02:03:58;;;;;;;42.45;24.05;;;;;;;4.53;100.00;103101.66;5031590;28;20038;-66
2022/01/17 02:06:23;;;;;;;43.28;24.05;;;;;;;4.48;100.00;103098.22;5044553;28;20037;-67
2022/01/17 02:08:49;;;;;;;41.03;22.83;;;;;;;4.45;100.00;103109.66;5041251;28;20030;-68
2022/01/17 02:11:15;;;;;;;40.28;23.08;;;;;;;4.39;100.00;103117.63;5042148;28;20025;-67
2022/01/17 02:13:40;;;;;;;35.17;21.92;;;;;;;4.38;100.00;103117.66;5041293;28;20064;-66
2022/01/17 02:16:14;;;;;;;36.47;21.70;;;;;;;4.33;100.00;103114.22;5041780;28;20145;-67
2022/01/17 02:18:44;;;;;;;38.65;22.70;;;;;;;4.29;100.00;103110.75;5031328;28;20026;-67
2022/01/17 02:23:44;;;;;;;34.85;21.15;;;;;;;4.22;100.00;103122.25;5037713;28;20406;-67
2022/01/17 02:26:10;;;;;;;32.35;20.23;;;;;;;4.17;100.00;103129.34;5041588;28;20463;-67
2022/01/17 02:28:36;;;;;;;33.33;20.38;;;;;;;4.13;100.00;103120.63;5041926;28;20486;-66
2022/01/17 02:31:06;;;;;;;36.65;20.63;;;;;;;4.10;100.00;103111.88;5042246;28;20022;-67
2022/01/17 02:33:33;;;;;;;32.25;19.73;;;;;;;4.06;100.00;103108.44;5035357;28;20075;-67
2022/01/17 02:35:58;;;;;;;39.03;20.10;;;;;;;4.00;100.00;103104.13;5042533;28;20475;-66
2022/01/17 02:38:23;;;;;;;35.35;19.73;;;;;;;3.99;100.00;103106.78;5040101;28;20021;-66
2022/01/17 02:40:50;;;;;;;33.97;21.35;;;;;;;3.94;100.00;103112.09;5032000;28;20033;-66
2022/01/17 02:43:17;;;;;;;37.72;21.73;;;;;;;3.91;100.00;103116.50;5036575;28;20043;-67
2022/01/17 02:48:20;;;;;;;39.38;22.60;;;;;;;3.83;100.00;103113.97;5035455;28;20383;-67
2022/01/17 02:50:45;;;;;;;40.35;23.77;;;;;;;3.81;100.00;103113.97;5027280;28;20463;-67
2022/01/17 02:53:12;;;;;;;43.78;24.40;;;;;;;3.78;100.00;103106.16;5036427;28;20057;-66
2022/01/17 02:55:43;;;;;;;45.70;25.48;;;;;;;3.74;100.00;103117.56;5034454;28;20026;-66
2022/01/17 02:58:08;;;;;;;37.25;24.95;;;;;;;3.73;100.00;103128.09;5036064;28;20033;-66
2022/01/17 03:00:33;;;;;;;47.55;26.10;;;;;;;3.70;100.00;103121.16;5025775;28;20040;-66
2022/01/17 03:02:58;;;;;;;49.00;26.40;;;;;;;3.68;100.00;103118.53;5029584;28;20052;-67
2022/01/17 03:05:24;;;;;;;49.42;25.75;;;;;;;3.65;100.00;103115.94;5035500;28;20107;-67
2022/01/17 03:07:50;;;;;;;51.85;25.33;;;;;;;3.63;100.00;103111.56;5037658;28;20065;-67
2022/01/17 03:10:34;;;;;;;42.83;26.75;;;;;;;3.61;100.00;103115.97;5029549;28;20032;-66
2022/01/17 03:13:09;;;;;;;51.10;26.17;;;;;;;3.58;100.00;103116.00;5036322;28;20703;-65
2022/01/17 03:15:35;;;;;;;47.72;27.27;;;;;;;3.56;100.00;103109.91;5034847;28;20051;-66
2022/01/17 03:18:02;;;;;;;44.05;26.45;;;;;;;3.52;100.00;103107.31;5037095;28;20017;-65
2022/01/17 03:20:27;;;;;;;52.00;29.05;;;;;;;3.50;100.00;103102.97;5031497;28;20305;-65
2022/01/17 03:22:53;;;;;;;48.38;27.65;;;;;;;3.49;100.00;103117.84;5038936;28;20064;-65
2022/01/17 03:25:18;;;;;;;55.72;29.58;;;;;;;3.47;100.00;103110.88;5037653;28;20814;-66
2022/01/17 03:27:43;;;;;;;45.28;27.70;;;;;;;3.45;100.00;103104.78;5025420;28;20510;-66
2022/01/17 03:30:09;;;;;;;55.22;28.48;;;;;;;3.43;100.00;103107.41;5036408;28;20087;-66
2022/01/17 03:32:34;;;;;;;53.25;29.27;;;;;;;3.43;100.00;103098.63;5029050;28;20022;-66
2022/01/17 03:35:00;;;;;;;57.05;28.42;;;;;;;3.39;100.00;103095.19;5040095;28;20029;-65
2022/01/17 03:37:26;;;;;;;51.80;29.48;;;;;;;3.41;100.00;103106.53;5036356;28;20093;-65
2022/01/17 03:39:51;;;;;;;51.35;28.08;;;;;;;3.39;100.00;103112.72;5038377;28;20084;-66
2022/01/17 03:42:18;;;;;;;51.10;27.08;;;;;;;3.36;100.00;103116.22;5039261;28;20029;-66
2022/01/17 03:44:44;;;;;;;49.42;28.48;;;;;;;3.37;100.00;103117.13;5035145;28;20033;-65
2022/01/17 03:47:09;;;;;;;49.40;26.27;;;;;;;3.36;100.00;103126.72;5040480;28;20032;-65
2022/01/17 03:49:35;;;;;;;48.35;27.00;;;;;;;3.35;100.00;103122.38;5033197;28;20033;-65
2022/01/17 03:52:00;;;;;;;48.47;25.35;;;;;;;3.34;100.00;103123.25;5032631;28;20057;-65
2022/01/17 03:54:25;;;;;;;48.20;25.75;;;;;;;3.34;100.00;103118.00;5036755;28;20484;-65
2022/01/17 03:56:52;;;;;;;43.20;24.10;;;;;;;3.34;100.00;103118.00;5038306;28;20045;-65
2022/01/17 03:59:17;;;;;;;47.33;23.77;;;;;;;3.33;100.00;103113.63;5037438;28;20040;-65
2022/01/17 04:01:42;;;;;;;36.83;22.48;;;;;;;3.28;100.00;103111.06;5035120;28;20124;-65
2022/01/17 04:04:07;;;;;;;39.85;21.67;;;;;;;3.29;100.00;103115.41;5038783;28;20091;-66
2022/01/17 04:06:33;;;;;;;36.33;21.40;;;;;;;3.26;100.00;103115.44;5038106;28;20026;-66
2022/01/17 04:08:59;;;;;;;41.45;20.73;;;;;;;3.24;100.00;103118.97;5037581;28;20036;-66
2022/01/17 04:11:24;;;;;;;36.58;19.52;;;;;;;3.21;100.00;103116.38;5029195;28;20037;-65
2022/01/17 04:13:49;;;;;;;38.53;19.48;;;;;;;3.19;100.00;103120.78;5026854;28;20025;-66
2022/01/17 04:16:15;;;;;;;35.30;18.88;;;;;;;3.15;100.00;103117.31;5031658;28;20083;-65
2022/01/17 04:18:40;;;;;;;36.80;18.63;;;;;;;3.13;100.00;103119.94;5038162;28;20017;-66
2022/01/17 04:21:05;;;;;;;30.65;17.38;;;;;;;3.10;100.00;103125.22;5046542;28;20029;-66
2022/01/17 04:23:31;;;;;;;35.92;18.20;;;;;;;3.09;100.00;103127.84;5037402;28;20041;-65
2022/01/17 04:25:56;;;;;;;28.02;17.73;;;;;;;3.08;100.00;103126.09;5039666;28;20094;-64
2022/01/17 04:28:22;;;;;;;30.65;17.25;;;;;;;3.06;100.00;103125.25;5038608;28;20026;-65
2022/01/17 04:30:47;;;;;;;26.85;16.30;;;;;;;3.05;100.00;103137.53;5037288;28;20034;-65
2022/01/17 04:33:14;;;;;;;34.13;18.23;;;;;;;3.04;100.00;103143.63;5028962;28;20033;-65
2022/01/17 04:35:40;;;;;;;31.55;17.65;;;;;;;3.03;100.00;103139.28;5040679;28;20032;-66
2022/01/17 04:38:08;;;;;;;28.40;16.00;;;;;;;3.03;100.00;103138.41;5035689;28;20124;-65
2022/01/17 04:40:36;;;;;;;32.65;17.23;;;;;;;3.02;100.00;103141.94;5018313;28;20065;-65
2022/01/17 04:43:16;;;;;;;36.03;17.58;;;;;;;2.99;100.00;103142.81;5018432;28;20506;-65
2022/01/17 04:45:42;;;;;;;34.28;16.52;;;;;;;2.96;100.00;103135.84;5019205;28;20519;-65
2022/01/17 04:48:07;;;;;;;33.78;17.98;;;;;;;2.96;100.00;103129.69;5018618;28;20030;-65
2022/01/17 04:50:33;;;;;;;31.05;17.15;;;;;;;2.95;100.00;103126.22;5019054;28;20615;-65
2022/01/17 04:53:00;;;;;;;33.53;18.33;;;;;;;2.93;100.00;103132.34;5019462;28;20044;-65
2022/01/17 04:55:27;;;;;;;33.70;19.15;;;;;;;2.93;100.00;103129.72;5020818;28;20026;-65
2022/01/17 04:57:56;;;;;;;34.58;19.90;;;;;;;2.92;100.00;103135.88;5021343;28;20037;-65
2022/01/17 05:00:22;;;;;;;31.17;18.50;;;;;;;2.89;100.00;103133.25;5021149;28;20113;-65
2022/01/17 05:02:48;;;;;;;36.55;19.80;;;;;;;2.88;100.00;103134.13;5016756;28;20033;-65
2022/01/17 05:05:14;;;;;;;38.70;19.73;;;;;;;2.88;100.00;103144.63;5014800;28;20084;-65
2022/01/17 05:07:39;;;;;;;37.40;20.20;;;;;;;2.86;100.00;103147.28;5014430;28;20026;-65
2022/01/17 05:10:08;;;;;;;39.72;22.23;;;;;;;2.86;100.00;103144.66;5013988;28;20503;-66
2022/01/17 05:12:34;;;;;;;33.58;20.80;;;;;;;2.85;100.00;103139.41;5014589;28;20093;-66
2022/01/17 05:14:59;;;;;;;41.80;21.40;;;;;;;2.86;100.00;103154.28;5015138;28;20057;-65
2022/01/17 05:20:00;;;;;;;38.83;21.83;;;;;;;2.82;100.00;103166.56;5017387;28;20041;-66
2022/01/17 05:22:31;;;;;;;35.70;19.63;;;;;;;2.82;100.00;103165.69;5008155;28;20038;-66
2022/01/17 05:24:56;;;;;;;43.28;20.60;;;;;;;2.82;100.00;103176.19;5033416;28;20048;-66
2022/01/17 05:27:21;;;;;;;39.15;21.00;;;;;;;2.78;100.00;103170.97;5033126;28;20104;-66
2022/01/17 05:29:46;;;;;;;35.13;19.83;;;;;;;2.77;100.00;103170.97;5032715;28;20044;-66
2022/01/17 05:32:12;;;;;;;35.22;20.10;;;;;;;2.74;100.00;103165.75;5036761;28;20061;-66
2022/01/17 05:34:40;;;;;;;39.08;20.17;;;;;;;2.72;100.00;103181.50;5031540;28;20030;-66
2022/01/17 05:37:10;;;;;;;36.67;20.20;;;;;;;2.68;100.00;103179.78;5033914;28;20029;-65
2022/01/17 05:39:35;;;;;;;;;;;;;;;2.74;100.00;103173.59;5033849;28;20431;-66
2022/01/17 05:42:01;;;;;;;36.15;20.05;;;;;;;2.66;100.00;103178.88;5022617;28;19944;-66
2022/01/17 05:44:26;;;;;;;34.63;22.20;;;;;;;2.64;100.00;103183.28;5014086;28;20017;-66
2022/01/17 05:46:51;;;;;;;43.00;22.48;;;;;;;2.63;100.00;103185.91;5013190;28;20069;-66
2022/01/17 05:49:17;;;;;;;35.90;21.95;;;;;;;2.63;100.00;103186.81;5013672;28;20038;-67
2022/01/17 05:51:42;;;;;;;38.10;23.88;;;;;;;2.61;100.00;103177.19;5013887;28;20046;-66
2022/01/17 05:54:08;;;;;;;40.63;22.83;;;;;;;2.57;100.00;103171.94;5015013;28;20369;-66
2022/01/17 05:56:33;;;;;;;43.72;24.40;;;;;;;2.58;100.00;103178.97;5014665;28;20033;-66
2022/01/17 05:58:59;;;;;;;45.75;24.95;;;;;;;2.57;100.00;103173.72;5013987;28;20280;-66
2022/01/17 06:01:24;;;;;;;40.53;24.85;;;;;;;2.55;100.00;103172.84;5029017;28;20056;-66
2022/01/17 06:03:49;;;;;;;45.70;25.40;;;;;;;2.56;100.00;103190.31;5014789;28;20424;-66
2022/01/17 06:06:14;;;;;;;43.67;25.13;;;;;;;2.55;100.00;103192.09;5013509;28;20080;-66
2022/01/17 06:08:40;;;;;;;40.20;26.55;;;;;;;2.54;100.00;103192.09;5013260;28;20038;-66
2022/01/17 06:11:05;;;;;;;47.65;24.88;;;;;;;2.53;100.00;103185.97;5013296;28;20018;-66
2022/01/17 06:13:30;;;;;;;41.50;26.52;;;;;;;2.52;100.00;103186.84;5012814;28;20052;-65
2022/01/17 06:15:56;;;;;;;44.28;26.42;;;;;;;2.52;100.00;103196.47;5013306;28;20052;-66
2022/01/17 06:18:21;;;;;;;43.53;26.13;;;;;;;2.49;100.00;103194.72;5013084;28;20026;-66
2022/01/17 06:20:47;;;;;;;47.78;27.15;;;;;;;2.50;100.00;103193.88;5012255;28;20168;-65
2022/01/17 06:23:12;;;;;;;46.33;26.40;;;;;;;2.49;100.00;103186.00;5034170;28;20034;-65
2022/01/17 06:25:38;;;;;;;41.08;26.42;;;;;;;2.47;100.00;103200.88;5023457;28;20022;-66
2022/01/17 06:28:03;;;;;;;44.60;25.42;;;;;;;2.46;100.00;103205.22;5013892;28;20067;-65
2022/01/17 06:30:29;;;;;;;45.83;26.08;;;;;;;2.43;100.00;103202.63;5012554;28;20399;-65
2022/01/17 06:32:54;;;;;;;48.22;26.45;;;;;;;2.42;100.00;103202.66;5016500;28;20048;-65
2022/01/17 06:35:19;;;;;;;41.83;26.70;;;;;;;2.40;100.00;103192.16;5026238;28;20044;-66
2022/01/17 06:37:45;;;;;;;47.95;27.27;;;;;;;2.39;100.00;103193.91;5031792;28;20420;-66
2022/01/17 06:40:11;;;;;;;47.30;26.92;;;;;;;2.39;100.00;103201.75;5029592;28;20080;-66
2022/01/17 06:42:37;;;;;;;49.35;28.38;;;;;;;2.39;100.00;103214.88;5038668;28;20040;-66
2022/01/17 06:45:04;;;;;;;46.85;28.00;;;;;;;2.40;100.00;103224.50;5032970;28;20029;-65
2022/01/17 06:47:31;;;;;;;53.47;29.45;;;;;;;2.39;100.00;103211.41;5030765;28;20108;-66
2022/01/17 06:49:56;;;;;;;53.30;29.80;;;;;;;2.40;100.00;103215.78;5032318;28;20022;-65
2022/01/17 06:52:23;;;;;;;52.88;29.52;;;;;;;2.41;100.00;103212.25;5032400;28;20052;-64
2022/01/17 06:54:48;;;;;;;53.50;30.65;;;;;;;2.42;100.00;103221.00;5028325;28;20087;-65
2022/01/17 06:57:13;;;;;;;57.40;30.15;;;;;;;2.44;100.00;103232.38;5032051;28;20335;-65
2022/01/17 06:59:39;;;;;;;55.92;30.65;;;;;;;2.44;100.00;103235.84;5028285;28;20026;-65
2022/01/17 07:02:04;;;;;;;56.90;30.38;;;;;;;2.47;100.00;103254.22;5031263;28;20021;-66
2022/01/17 07:04:29;;;;;;;49.97;30.17;;;;;;;2.48;100.00;103255.06;5032873;28;20033;-65
2022/01/17 07:06:55;;;;;;;60.75;31.52;;;;;;;2.48;100.00;103252.44;5019004;28;20072;-66
2022/01/17 07:09:21;;;;;;;54.58;28.85;;;;;;;2.48;100.00;103265.56;5032059;28;20029;-65
2022/01/17 07:11:47;;;;;;;54.40;31.45;;;;;;;2.48;100.00;103265.56;5030078;28;20030;-66
2022/01/17 07:14:12;;;;;;;54.10;30.95;;;;;;;2.49;100.00;103259.44;5025700;28;20064;-66
2022/01/17 07:16:39;;;;;;;54.42;29.88;;;;;;;2.48;100.00;103239.31;5031493;28;20529;-65
2022/01/17 07:19:05;;;;;;;45.03;29.38;;;;;;;2.49;100.00;103231.44;5031124;28;20037;-66
2022/01/17 07:21:31;;;;;;;48.30;30.60;;;;;;;2.49;100.00;103228.84;5032350;28;20384;-65
2022/01/17 07:23:56;;;;;;;50.25;28.98;;;;;;;2.48;100.00;103211.38;5028517;28;20028;-65
2022/01/17 07:26:21;;;;;;;56.15;31.05;;;;;;;2.50;100.00;103200.84;5033692;28;20503;-65
2022/01/17 07:28:46;;;;;;;51.00;29.02;;;;;;;2.50;100.00;103199.09;5041420;28;20029;-67
2022/01/17 07:31:15;;;;;;;52.63;28.38;;;;;;;2.49;100.00;103194.72;5044274;28;20453;-68
2022/01/17 07:33:40;;;;;;;48.20;28.92;;;;;;;2.52;100.00;103213.09;5036329;28;20025;-67
2022/01/17 07:36:06;;;;;;;52.20;29.40;;;;;;;2.54;100.00;103215.69;5036180;28;20103;-66
2022/01/17 07:38:32;;;;;;;47.47;28.50;;;;;;;2.55;100.00;103226.19;5016948;28;20480;-65
2022/01/17 07:40:57;;;;;;;53.67;29.85;;;;;;;2.56;100.00;103229.69;5013688;28;20054;-65
2022/01/17 07:43:23;;;;;;;57.33;30.27;;;;;;;2.57;100.00;103236.69;5042452;28;20068;-65
2022/01/17 07:46:03;;;;;;;51.22;30.08;;;;;;;2.57;100.00;103239.31;5027080;28;20037;-64
2022/01/17 07:48:57;;;;;;;50.90;29.33;;;;;;;2.59;100.00;103227.03;5019110;28;20495;-64
2022/01/17 07:51:23;;;;;;;49.88;28.95;;;;;;;2.61;100.00;103245.41;5016236;28;20046;-64
2022/01/17 07:53:49;;;;;;;52.05;29.60;;;;;;;2.62;100.00;103252.41;5018161;28;20025;-64
2022/01/17 07:56:14;;;;;;;50.83;30.30;;;;;;;2.62;100.00;103260.28;5016882;28;20479;-64
2022/01/17 07:58:41;;;;;;;53.75;30.98;;;;;;;2.61;100.00;103258.53;5014841;28;20450;-64
2022/01/17 08:01:07;;;;;;;57.72;31.48;;;;;;;2.61;100.00;103272.50;5011899;28;20125;-65
2022/01/17 08:03:33;;;;;;;56.88;29.85;;;;;;;2.62;100.00;103269.00;5027114;28;20104;-65
2022/01/17 08:05:59;;;;;;;61.17;30.90;;;;;;;2.63;100.00;103278.63;5026353;28;20466;-64
2022/01/17 08:08:24;;;;;;;58.45;29.88;;;;;;;2.64;100.00;103287.38;5031217;28;20360;-64
2022/01/17 08:10:49;;;;;;;57.42;31.50;;;;;;;2.66;100.00;103277.75;5028197;28;20500;-65
2022/01/17 08:13:15;;;;;;;56.67;30.83;;;;;;;2.66;100.00;103290.84;5021181;28;20060;-65
2022/01/17 08:15:40;;;;;;;58.08;30.65;;;;;;;2.67;100.00;103298.72;5019436;28;20045;-64
2022/01/17 08:18:05;;;;;;;60.60;32.65;;;;;;;2.68;100.00;103303.09;5030885;28;20100;-64
2022/01/17 08:20:31;;;;;;;53.22;31.73;;;;;;;2.69;100.00;103296.09;5025705;28;20053;-64
2022/01/17 08:22:57;;;;;;;54.17;30.88;;;;;;;2.70;100.00;103275.09;5022402;28;20083;-65
2022/01/17 08:25:23;;;;;;;56.28;30.80;;;;;;;2.72;100.00;103285.59;5035436;28;20030;-65
2022/01/17 08:27:48;;;;;;;57.92;31.67;;;;;;;2.74;100.00;103276.81;5027831;28;20048;-65
2022/01/17 08:30:14;;;;;;;58.05;32.20;;;;;;;2.77;100.00;103291.69;5029255;28;20038;-65
2022/01/17 08:32:40;;;;;;;54.08;32.42;;;;;;;2.82;100.00;103294.31;5017698;28;20022;-65
2022/01/17 08:35:06;;;;;;;64.88;31.90;;;;;;;2.87;100.00;103293.38;5017801;28;20046;-64
2022/01/17 08:37:31;;;;;;;63.88;33.25;;;;;;;2.92;100.00;103294.22;5032802;28;20037;-64
2022/01/17 08:39:58;;;;;;;56.45;31.20;;;;;;;2.97;100.00;103299.47;5029806;28;20084;-64
2022/01/17 08:42:23;;;;;;;59.90;31.67;;;;;;;3.02;100.00;103294.19;5018665;28;20030;-65
2022/01/17 08:44:50;;;;;;;60.13;32.63;;;;;;;3.07;100.00;103281.91;5015071;28;20068;-65
2022/01/17 08:47:17;;;;;;;62.05;31.75;;;;;;;3.11;100.00;103270.50;5012139;28;20018;-64
2022/01/17 08:49:44;;;;;;;60.17;31.02;;;;;;;3.16;100.00;103271.34;5013098;28;20100;-65
2022/01/17 08:52:09;;;;;;;57.50;30.95;;;;;;;3.21;100.00;103273.94;5024102;28;20048;-64
2022/01/17 08:54:35;;;;;;;63.92;30.83;;;;;;;3.25;100.00;103273.91;5025096;28;20042;-65
2022/01/17 08:57:01;;;;;;;56.97;30.45;;;;;;;3.31;100.00;103276.50;5028023;28;20076;-66
2022/01/17 08:59:29;;;;;;;64.68;30.50;;;;;;;3.37;100.00;103278.22;5021478;28;20030;-65
2022/01/17 09:01:54;;;;;;;58.95;29.65;;;;;;;3.44;100.00;103286.91;5014014;28;20029;-65
2022/01/17 09:04:19;;;;;;;55.80;29.20;;;;;;;3.47;100.00;103284.28;5018347;28;20064;-65
2022/01/17 09:06:45;;;;;;;52.08;28.70;;;;;;;3.52;100.00;103293.00;5014280;28;20464;-65
2022/01/17 09:09:10;;;;;;;60.63;28.70;;;;;;;3.55;100.00;103286.81;5015655;28;20025;-65
2022/01/17 09:11:35;;;;;;;49.75;27.65;;;;;;;3.60;100.00;103292.94;5011632;28;20030;-65
2022/01/17 09:14:00;;;;;;;54.95;27.67;;;;;;;3.63;100.00;103292.91;5011448;28;20030;-65
2022/01/17 09:16:26;;;;;;;53.45;27.60;;;;;;;3.66;100.00;103293.78;5012576;28;20142;-65
2022/01/17 09:18:51;;;;;;;55.22;26.42;;;;;;;3.70;100.00;103307.75;5010595;28;20281;-65
2022/01/17 09:21:16;;;;;;;47.33;24.65;;;;;;;3.74;100.00;103319.09;5014074;28;20043;-65
2022/01/17 09:23:42;;;;;;;42.25;24.58;;;;;;;3.77;100.00;103338.34;5013812;28;20460;-65
2022/01/17 09:26:08;;;;;;;46.80;23.92;;;;;;;3.82;100.00;103333.06;4992525;28;20373;-65
2022/01/17 09:28:33;;;;;;;49.47;22.60;;;;;;;3.85;100.00;103335.69;5013834;28;20546;-65
2022/01/17 09:30:58;;;;;;;46.58;21.95;;;;;;;3.89;100.00;103335.59;5031324;28;20025;-65
2022/01/17 09:33:24;;;;;;;42.17;21.63;;;;;;;3.96;100.00;103346.09;5036323;28;20029;-66
2022/01/17 09:35:49;;;;;;;46.60;21.58;;;;;;;4.00;100.00;103343.41;5033833;28;20032;-64
2022/01/17 09:38:15;;;;;;;46.67;21.30;;;;;;;4.05;100.00;103339.00;5030563;28;20112;-65
2022/01/17 09:40:40;;;;;;;46.25;19.15;;;;;;;4.10;100.00;103332.81;5032286;28;20026;-66
2022/01/17 09:43:06;;;;;;;42.50;19.52;;;;;;;4.13;100.00;103331.03;5021919;28;20420;-66
2022/01/17 09:45:31;;;;;;;40.42;18.15;;;;;;;4.17;100.00;103340.63;5013236;28;20036;-66
2022/01/17 09:47:57;;;;;;;44.97;17.88;;;;;;;4.21;100.00;103342.38;5016477;28;20153;-65
2022/01/17 09:50:33;;;;;;;39.30;17.05;;;;;;;4.26;100.00;103343.19;5030549;28;20060;-65
2022/01/17 09:52:59;;;;;;;37.25;17.63;;;;;;;4.32;100.00;103355.41;5024266;28;20029;-65
2022/01/17 09:55:30;;;;;;;43.28;16.65;;;;;;;4.35;100.00;103351.88;5026949;28;20033;-66
2022/01/17 09:58:03;;;;;;;38.83;15.68;;;;;;;4.38;100.00;103355.34;5033598;28;20021;-67
2022/01/17 10:00:32;;;;;;;29.52;14.98;;;;;;;4.40;100.00;103365.84;5034252;28;20017;-65
2022/01/17 10:02:59;;;;;;;33.67;16.02;;;;;;;4.43;100.00;103385.13;5030522;28;20038;-65
2022/01/17 10:05:27;;;;;;;29.15;14.90;;;;;;;4.47;100.00;103377.19;5018807;28;20041;-65
2022/01/17 10:07:56;;;;;;;31.90;14.90;;;;;;;4.48;100.00;103366.66;5019205;28;20024;-66
2022/01/17 10:10:35;;;;;;;33.00;14.27;;;;;;;4.52;100.00;103385.91;5030156;28;20041;-64
2022/01/17 10:13:09;;;;;;;41.95;14.38;;;;;;;4.53;100.00;103364.84;5050365;28;20029;-68
2022/01/17 10:15:46;;;;;;;28.13;13.52;;;;;;;4.55;100.00;103365.69;5041950;28;20048;-68
2022/01/17 10:18:24;;;;;;;37.00;13.35;;;;;;;4.59;100.00;103377.91;5040504;28;20038;-68
2022/01/17 10:20:55;;;;;;;33.83;13.23;;;;;;;4.60;100.00;103374.41;5042144;28;20359;-68
2022/01/17 10:23:39;;;;;;;30.92;13.18;;;;;;;4.63;100.00;103369.13;5033457;28;20030;-65
2022/01/17 10:26:13;;;;;;;32.42;13.68;;;;;;;4.66;100.00;103373.44;5034208;28;20052;-65
2022/01/17 10:29:09;;;;;;;31.35;11.68;;;;;;;4.69;100.00;103381.31;5018403;28;20030;-66
2022/01/17 10:37:07;;;;;;;30.67;11.02;;;;;;;4.78;100.00;103388.25;5021257;28;20549;-66
2022/01/17 10:39:35;;;;;;;33.28;10.85;;;;;;;4.80;100.00;103397.00;5033582;28;20037;-66
2022/01/17 10:42:22;;;;;;;26.97;10.30;;;;;;;4.84;100.00;103380.28;5033441;28;20098;-66
2022/01/17 10:44:47;;;;;;;29.13;10.27;;;;;;;4.84;100.00;103385.53;5026903;28;20030;-65
2022/01/17 10:47:20;;;;;;;32.58;10.90;;;;;;;4.89;100.00;103388.13;5030191;28;20021;-66
2022/01/17 10:49:54;;;;;;;32.85;10.30;;;;;;;4.90;100.00;103385.47;5032756;28;20025;-66
2022/01/17 10:52:39;;;;;;;35.33;10.38;;;;;;;4.93;100.00;103389.81;5020780;28;20061;-66
2022/01/17 10:55:16;;;;;;;31.67;9.23;;;;;;;4.95;100.00;103398.59;5031905;28;20036;-65
2022/01/17 10:57:45;;;;;;;32.33;9.45;;;;;;;4.95;100.00;103412.63;5028106;28;20068;-66
2022/01/17 11:00:23;;;;;;;26.48;9.25;;;;;;;4.99;100.00;103411.69;5009976;28;20033;-67
2022/01/17 11:02:52;;;;;;;29.40;8.88;;;;;;;5.01;100.00;103409.03;5014202;28;20028;-67
2022/01/17 11:05:21;;;;;;;31.77;8.90;;;;;;;5.04;100.00;103427.44;5013313;28;20026;-66
2022/01/17 11:07:48;;;;;;;34.38;8.98;;;;;;;5.04;100.00;103410.78;5015426;28;20029;-66
2022/01/17 11:10:16;;;;;;;33.28;10.68;;;;;;;5.09;100.00;103419.50;5018895;28;20116;-66
2022/01/17 11:12:41;;;;;;;28.80;9.02;;;;;;;5.12;100.00;103435.28;5023132;28;20060;-67
2022/01/17 11:15:07;;;;;;;30.08;8.45;;;;;;;5.14;100.00;103425.59;5030321;28;20371;-66
2022/01/17 11:17:38;;;;;;;33.58;9.63;;;;;;;5.17;100.00;103428.19;5020949;28;20229;-66
2022/01/17 11:20:07;;;;;;;34.58;8.63;;;;;;;5.20;100.00;103428.16;5015188;28;20133;-67
2022/01/17 11:22:42;;;;;;;32.03;9.35;;;;;;;5.24;100.00;103418.44;5012002;28;20025;-67
2022/01/17 11:25:10;;;;;;;30.33;9.05;;;;;;;5.27;100.00;103413.13;5028460;28;20483;-67
2022/01/17 11:27:37;;;;;;;32.13;9.27;;;;;;;5.29;100.00;103412.22;5020441;28;20038;-67
2022/01/17 11:30:04;;;;;;;30.17;8.52;;;;;;;5.31;100.00;103407.81;5035370;28;20178;-67